Main page
Satellite images 10-day forecastsClimateMarine weather Cyclones Lightning AirportsFAQ Newsletter About
Weather : Europe Africa North America South America Asia Australia-Oceania Others
Languages Contact

San Fernando, Argentina

San Fernando Airport

latitude: 34-27-11S, longitude: 058-35-23W, elevation: 3 m


METAR: SADF 281700Z 05006KT CAVOK 23/11 Q1018
TAF: SADF 281100Z 2812/0112 02010KT 9999 FEW030 TX27/2818Z TN19/2812Z BECMG 0108/0110 7000 SHRA BKN025 SCT030TCU BKN050

Time: 14:23 (17:23 UTC)

Current weather observation

The report was made 23 minutes ago, at 17:00 UTC
Wind 6 kt from the Northeast
Temperature 23°C
Humidity 47%
Pressure 1018 hPa
Visibility 10 km or more
no clouds below 1500 m and no cumulonimbus

Change units

Forecast

The report was made 6 hours and 23 minutes ago, at 11:00 UTC
Forecast valid from 28 at 12 UTC to 01 at 12 UTC
Wind 10 kt from the North/Northeast
Visibility 10 km or more
Few clouds at a height of 3000 ft
Becoming
from 01 at 08 UTC to 01 at 10 UTC
Visibility: 7000 m
Broken clouds at a height of 2500 ft
Scattered clouds at a height of 3000 ft, Towering cumulus.
Broken clouds at a height of 5000 ft
rain showers
The information on this site is subject to a disclaimer
Weather : Europe Africa North America South America Asia Australia-Oceania Others
Satellite images 10-day forecastsClimateMarine weather Cyclones Lightning AirportsFAQ Languages Contact Newsletter About